Time;durP1;ratioP1;P1;durP2;ratioP2;P2;SDS_P1;SDS_P2;PMS_P1;PMS_P2;Temp;Humidity;BMP_temperature;BMP_pressure;BME280_temperature;BME280_humidity;BME280_pressure;Samples;Min_cycle;Max_cycle;Signal;HPM_P1;HPM_P2
2023/08/09 00:05:59;;;;;;;1.70;1.20;;;;;;;13.10;75.97;98975.83;102577;1292;600157;-22
2023/08/09 00:08:26;;;;;;;1.20;1.10;;;;;;;12.81;76.41;98978.13;104818;1271;61184;-22
2023/08/09 00:10:54;;;;;;;1.70;1.40;;;;;;;12.51;76.78;98979.79;104743;1265;61066;-22
2023/08/09 00:13:22;;;;;;;5.60;1.60;;;;;;;12.25;77.06;98981.92;104826;1279;72235;-22
2023/08/09 00:15:50;;;;;;;1.70;1.30;;;;;;;12.02;77.74;98979.80;104749;1268;74343;-22
2023/08/09 00:18:18;;;;;;;2.70;0.90;;;;;;;11.83;78.78;98978.98;105294;1257;71512;-22
2023/08/09 00:27:50;;;;;;;2.10;1.20;;;;;;;12.76;76.04;98984.14;102662;1292;600954;-22
2023/08/09 00:37:57;;;;;;;2.40;0.90;;;;;;;11.69;78.91;98988.91;103055;1286;600212;-22
2023/08/09 00:40:24;;;;;;;2.00;0.70;;;;;;;12.13;78.68;98989.77;105023;1266;61127;-22
2023/08/09 00:42:52;;;;;;;1.20;0.90;;;;;;;12.62;77.33;98992.60;104835;1264;61807;-22
2023/08/09 00:45:20;;;;;;;1.70;1.00;;;;;;;12.65;76.60;98991.94;104899;1264;71017;-22
2023/08/09 00:47:48;;;;;;;3.30;1.30;;;;;;;12.50;76.51;98997.87;104839;1266;73189;-23
2023/08/09 00:50:16;;;;;;;2.00;1.50;;;;;;;12.21;77.10;98993.24;104785;1269;72460;-23
2023/08/09 00:52:44;;;;;;;2.50;1.30;;;;;;;11.95;77.43;98995.70;103080;1264;2693799;-23
2023/08/09 00:55:12;;;;;;;2.70;1.20;;;;;;;11.73;78.13;98991.03;105053;1263;61166;-23
2023/08/09 00:57:39;;;;;;;1.70;0.80;;;;;;;11.56;78.77;98992.95;105077;1264;70962;-23
2023/08/09 01:00:09;;;;;;;1.20;0.90;;;;;;;11.94;79.58;98992.86;104967;1263;72385;-23
2023/08/09 01:02:37;;;;;;;3.30;0.90;;;;;;;12.39;78.33;98993.75;105686;1256;72671;-23
2023/08/09 01:12:50;;;;;;;2.10;1.30;;;;;;;11.75;77.92;99004.73;102681;1292;600082;-22
2023/08/09 01:15:18;;;;;;;1.90;1.50;;;;;;;11.45;77.84;99008.55;104775;1272;61224;-22
2023/08/09 01:17:49;;;;;;;1.20;0.90;;;;;;;11.20;78.67;99010.27;104767;1271;61177;-21
2023/08/09 01:20:18;;;;;;;1.80;0.90;;;;;;;11.59;79.25;99010.31;104828;1266;72189;-22
2023/08/09 01:23:22;;;;;;;1.80;0.90;;;;;;;12.07;77.98;99006.65;104792;1271;73244;-22
2023/08/09 01:25:49;;;;;;;1.80;1.00;;;;;;;11.99;76.24;99005.81;102602;1272;2652803;-23
2023/08/09 01:36:02;;;;;;;3.90;1.30;;;;;;;10.93;78.48;99006.97;102596;1292;599882;-21
2023/08/09 01:46:08;;;;;;;1.90;1.20;;;;;;;11.71;77.62;99006.63;102578;1292;600282;-22
2023/08/09 01:48:36;;;;;;;2.50;1.20;;;;;;;11.50;78.20;99008.27;104789;1266;61172;-22
2023/08/09 01:58:43;;;;;;;1.50;0.80;;;;;;;10.50;79.73;99012.91;102680;1293;600237;-22
2023/08/09 02:05:31;;;;;;;1.70;1.20;;;;;;;11.53;76.92;99018.59;105189;1267;61174;-23
2023/08/09 02:07:58;;;;;;;2.80;1.30;;;;;;;11.31;77.02;99018.91;104835;1271;72206;-24
2023/08/09 02:10:26;;;;;;;3.60;1.50;;;;;;;11.01;78.36;99016.77;105222;1268;74303;-23
2023/08/09 02:12:54;;;;;;;3.40;1.60;;;;;;;10.73;79.64;99017.70;103322;1260;2669829;-23
2023/08/09 02:15:22;;;;;;;2.20;1.80;;;;;;;10.46;80.83;99015.69;105146;1260;61116;-23
2023/08/09 02:17:49;;;;;;;3.40;1.20;;;;;;;10.25;81.32;99016.43;105246;1261;61107;-23
2023/08/09 02:20:21;;;;;;;1.00;0.90;;;;;;;10.65;81.74;99014.10;105186;1264;71055;-23
2023/08/09 02:22:48;;;;;;;1.90;1.30;;;;;;;11.15;80.42;99015.92;105100;1264;74245;-23
2023/08/09 02:32:54;;;;;;;2.70;1.40;;;;;;;10.41;81.13;99031.13;103370;1283;600098;-22
2023/08/09 02:35:22;;;;;;;2.00;1.10;;;;;;;10.14;82.04;99034.27;104860;1270;61256;-22
2023/08/09 02:37:50;;;;;;;4.10;1.30;;;;;;;10.49;83.10;99035.92;104766;1272;61119;-22
2023/08/09 02:40:18;;;;;;;2.30;1.30;;;;;;;10.96;81.66;99039.02;104875;1266;69846;-22
2023/08/09 02:42:45;;;;;;;2.20;1.20;;;;;;;10.99;80.39;99043.50;104792;1267;74306;-21
2023/08/09 02:51:36;;;;;;;8.50;1.80;;;;;;;10.20;81.93;99053.30;102633;1293;599465;-22
2023/08/09 02:54:06;;;;;;;3.30;1.00;;;;;;;9.96;82.06;99055.18;104912;1267;61180;-22
2023/08/09 02:56:33;;;;;;;3.80;1.20;;;;;;;10.35;82.10;99052.99;104825;1270;61208;-23
2023/08/09 02:59:01;;;;;;;3.30;2.70;;;;;;;10.82;80.49;99055.11;104896;1267;70712;-23
2023/08/09 03:01:29;;;;;;;2.00;1.30;;;;;;;10.87;80.02;99053.71;104897;1269;73266;-23
2023/08/09 03:03:58;;;;;;;2.70;1.30;;;;;;;10.72;80.56;99052.29;105089;1269;71396;-23
2023/08/09 03:06:26;;;;;;;3.70;1.80;;;;;;;10.52;81.35;99056.17;102901;1269;2743061;-23
2023/08/09 03:08:54;;;;;;;3.60;2.00;;;;;;;10.33;82.07;99059.23;105201;1267;61281;-23
2023/08/09 03:11:23;;;;;;;2.50;1.20;;;;;;;10.26;83.19;99066.02;108865;1264;71019;-24
2023/08/09 03:13:52;;;;;;;3.30;1.20;;;;;;;10.85;83.67;99064.55;108680;1263;74333;-24
2023/08/09 03:16:20;;;;;;;2.70;1.50;;;;;;;11.57;81.13;99061.73;108678;1264;71471;-24
2023/08/09 03:18:48;;;;;;;2.70;1.20;;;;;;;11.84;78.98;99060.85;108603;1266;58926;-24
2023/08/09 03:21:16;;;;;;;3.30;2.00;;;;;;;11.87;78.34;99061.29;108842;1263;58816;-24
2023/08/09 03:23:43;;;;;;;3.20;2.00;;;;;;;11.92;78.25;99057.42;108784;1263;71286;-24
2023/08/09 03:26:11;;;;;;;3.00;1.80;;;;;;;11.94;78.13;99055.84;108724;1263;73057;-24
2023/08/09 03:28:42;;;;;;;2.70;1.40;;;;;;;12.02;77.53;99064.52;108746;1266;71346;-24
2023/08/09 03:31:11;;;;;;;4.30;1.50;;;;;;;12.74;76.79;99066.52;108764;1265;60239;-24
2023/08/09 03:33:39;;;;;;;3.90;1.90;;;;;;;13.52;74.75;99065.45;108789;1263;60091;-24
2023/08/09 03:36:07;;;;;;;2.80;1.60;;;;;;;13.85;73.19;99068.87;108764;1265;73128;-24
2023/08/09 03:38:35;;;;;;;4.90;1.90;;;;;;;13.86;72.61;99070.62;108727;1265;73527;-24
2023/08/09 03:41:02;;;;;;;2.80;1.70;;;;;;;13.68;72.18;99075.98;108670;1266;70390;-24
2023/08/09 03:43:30;;;;;;;3.70;2.30;;;;;;;13.45;73.29;99082.61;108689;1265;58839;-24
2023/08/09 03:45:58;;;;;;;5.60;2.40;;;;;;;13.43;74.06;99084.21;108781;1266;60064;-24
2023/08/09 03:48:26;;;;;;;6.00;2.20;;;;;;;13.46;74.11;99081.70;108683;1266;71850;-24
2023/08/09 03:50:54;;;;;;;5.70;2.10;;;;;;;13.55;74.03;99087.97;108747;1266;73208;-24
2023/08/09 03:53:21;;;;;;;4.70;1.90;;;;;;;14.27;74.42;99086.83;108740;1266;72725;-24
2023/08/09 03:55:49;;;;;;;3.40;1.70;;;;;;;15.00;71.70;99087.16;108656;1267;60058;-24
2023/08/09 03:58:16;;;;;;;6.30;2.50;;;;;;;14.86;69.79;99085.35;108771;1266;58746;-24
2023/08/09 04:00:44;;;;;;;4.90;2.80;;;;;;;14.51;71.01;99087.19;108607;1265;73020;-22
2023/08/09 04:03:12;;;;;;;4.60;2.50;;;;;;;14.21;72.50;99090.02;108580;1265;74320;-22
2023/08/09 04:05:39;;;;;;;6.40;3.50;;;;;;;13.95;73.31;99098.27;108681;1266;72761;-21
2023/08/09 04:08:07;;;;;;;4.90;2.80;;;;;;;13.87;74.07;99097.64;108729;1266;59308;-21
2023/08/09 04:10:36;;;;;;;7.60;3.40;;;;;;;13.85;74.57;99096.52;108622;1265;60036;-21
2023/08/09 04:13:03;;;;;;;5.30;2.60;;;;;;;14.04;74.66;99094.91;108760;1267;71736;-22
2023/08/09 04:15:31;;;;;;;6.60;2.40;;;;;;;14.73;73.53;99090.64;108751;1266;74034;-22
2023/08/09 04:17:58;;;;;;;7.00;2.80;;;;;;;15.36;71.03;99095.13;108611;1267;72687;-22
2023/08/09 04:20:26;;;;;;;7.60;3.00;;;;;;;15.11;69.89;99099.38;108687;1265;59196;-22
2023/08/09 04:23:00;;;;;;;5.20;3.00;;;;;;;14.88;71.31;99098.11;108775;1266;58859;-22
2023/08/09 04:25:27;;;;;;;4.60;2.70;;;;;;;14.77;71.52;99096.88;108680;1267;73022;-22
2023/08/09 04:27:56;;;;;;;8.30;3.80;;;;;;;14.57;72.35;99096.33;108757;1266;74311;-22
2023/08/09 04:30:24;;;;;;;5.00;2.90;;;;;;;14.53;72.81;99095.55;108741;1267;71419;-21
2023/08/09 04:32:55;;;;;;;7.20;3.00;;;;;;;14.60;72.95;99094.88;108669;1266;58867;-21
2023/08/09 04:35:23;;;;;;;5.00;3.10;;;;;;;14.57;73.47;99096.00;108669;1266;58745;-21
2023/08/09 04:37:50;;;;;;;3.50;2.10;;;;;;;14.54;74.02;99099.31;108714;1267;73131;-24
2023/08/09 04:40:18;;;;;;;4.30;2.30;;;;;;;15.21;73.32;99103.77;108723;1267;73006;-24
2023/08/09 04:42:47;;;;;;;4.70;2.20;;;;;;;16.02;70.64;99106.82;108689;1266;72648;-24
2023/08/09 04:45:15;;;;;;;4.20;2.30;;;;;;;16.37;69.51;99110.55;108669;1267;60128;-22
2023/08/09 04:47:43;;;;;;;4.10;2.50;;;;;;;16.59;68.74;99117.27;108652;1270;59121;-22
2023/08/09 04:50:11;;;;;;;5.40;2.60;;;;;;;16.68;68.63;99118.77;108610;1267;73047;-21
2023/08/09 04:52:38;;;;;;;3.40;2.50;;;;;;;16.63;67.99;99122.71;108721;1266;74422;-22
2023/08/09 04:55:06;;;;;;;3.50;2.10;;;;;;;16.42;69.14;99127.20;108705;1265;72677;-23
2023/08/09 04:57:34;;;;;;;5.10;2.00;;;;;;;16.36;69.27;99126.48;108611;1267;60054;-24
2023/08/09 05:00:08;;;;;;;3.50;2.00;;;;;;;16.12;69.29;99118.98;108707;1267;60132;-24
2023/08/09 05:02:36;;;;;;;4.30;2.20;;;;;;;16.15;69.87;99118.32;108529;1265;73046;-24
2023/08/09 05:05:07;;;;;;;3.30;1.80;;;;;;;16.07;70.26;99118.42;108663;1266;74752;-24
2023/08/09 05:07:35;;;;;;;4.20;2.30;;;;;;;16.06;70.55;99120.98;108581;1266;71355;-24
2023/08/09 05:10:03;;;;;;;5.90;2.30;;;;;;;16.16;71.18;99125.39;108678;1267;60061;-24
2023/08/09 05:12:31;;;;;;;3.70;1.80;;;;;;;16.21;70.86;99124.51;108608;1266;58746;-24
2023/08/09 05:14:58;;;;;;;4.40;2.40;;;;;;;16.48;70.39;99124.64;108685;1267;72176;-24
2023/08/09 05:17:26;;;;;;;3.60;1.40;;;;;;;16.74;69.75;99123.53;108693;1266;74319;-24
2023/08/09 05:19:53;;;;;;;3.80;1.70;;;;;;;17.47;68.50;99125.90;108710;1266;72746;-24
2023/08/09 05:22:21;;;;;;;2.60;1.40;;;;;;;18.25;66.51;99127.85;108623;1267;59348;-22
2023/08/09 05:24:48;;;;;;;2.60;1.60;;;;;;;18.51;64.74;99125.80;108679;1267;58730;-22
2023/08/09 05:27:16;;;;;;;2.50;1.80;;;;;;;18.54;62.99;99128.73;108710;1267;71863;-22
2023/08/09 05:29:43;;;;;;;2.70;1.90;;;;;;;18.45;63.03;99128.71;108718;1265;74312;-22
2023/08/09 05:32:11;;;;;;;2.20;2.00;;;;;;;18.33;63.71;99125.85;108693;1267;71412;-22
2023/08/09 05:34:39;;;;;;;2.80;1.70;;;;;;;18.30;64.24;99124.23;108566;1267;60204;-22
2023/08/09 05:37:07;;;;;;;3.20;1.60;;;;;;;18.24;64.38;99121.91;108719;1266;58649;-24
2023/08/09 05:39:34;;;;;;;3.80;1.60;;;;;;;18.15;63.57;99123.23;108681;1267;73018;-22
2023/08/09 05:42:03;;;;;;;3.90;2.00;;;;;;;18.05;63.00;99124.98;108706;1266;74318;-23
2023/08/09 05:44:30;;;;;;;3.20;1.40;;;;;;;17.90;63.70;99128.47;108680;1267;72589;-22
2023/08/09 05:46:58;;;;;;;2.20;1.40;;;;;;;17.85;64.19;99129.38;108578;1267;60046;-23
2023/08/09 05:49:25;;;;;;;3.30;1.70;;;;;;;17.80;64.29;99135.21;108672;1266;58929;-23
2023/08/09 05:51:53;;;;;;;2.20;1.30;;;;;;;17.74;63.96;99137.80;108618;1266;73006;-22
2023/08/09 05:54:20;;;;;;;3.10;1.60;;;;;;;17.75;64.75;99139.29;108625;1267;74341;-22
2023/08/09 05:56:48;;;;;;;1.60;1.00;;;;;;;17.73;64.89;99137.22;108661;1267;72648;-22
2023/08/09 05:59:15;;;;;;;3.70;1.70;;;;;;;17.69;65.06;99137.63;108696;1266;59502;-23
2023/08/09 06:01:43;;;;;;;1.60;1.20;;;;;;;17.57;64.36;99137.49;108695;1266;58719;-22
2023/08/09 06:04:10;;;;;;;1.60;1.30;;;;;;;17.47;64.30;99134.89;108610;1267;71946;-22
2023/08/09 06:06:38;;;;;;;2.80;1.50;;;;;;;17.44;64.11;99135.79;108690;1267;73028;-23
2023/08/09 06:09:06;;;;;;;1.70;1.20;;;;;;;17.45;64.46;99132.27;108533;1267;72668;-23
2023/08/09 06:11:50;;;;;;;2.80;1.40;;;;;;;17.39;64.61;99134.58;108639;1266;58793;-22
2023/08/09 06:14:18;;;;;;;2.80;1.10;;;;;;;17.28;64.01;99135.14;108600;1267;58813;-22
2023/08/09 06:16:48;;;;;;;2.80;1.40;;;;;;;17.17;65.54;99133.39;108683;1266;73065;-22
2023/08/09 06:19:15;;;;;;;1.70;1.30;;;;;;;17.13;65.33;99131.61;108676;1266;73199;-22
2023/08/09 06:21:43;;;;;;;1.80;1.30;;;;;;;17.10;65.18;99129.09;108711;1267;72673;-22
2023/08/09 06:24:11;;;;;;;2.70;1.40;;;;;;;17.09;65.35;99129.67;108700;1266;60156;-23
2023/08/09 06:26:38;;;;;;;1.60;1.20;;;;;;;17.28;65.52;99129.06;108732;1266;60056;-22
2023/08/09 06:29:06;;;;;;;4.50;1.50;;;;;;;17.47;64.24;99133.46;108646;1266;71702;-22
2023/08/09 06:31:33;;;;;;;1.40;1.10;;;;;;;17.71;63.81;99131.23;108625;1266;74357;-22
2023/08/09 06:34:01;;;;;;;4.20;1.80;;;;;;;17.94;63.04;99128.48;108691;1266;72668;-22
2023/08/09 06:36:28;;;;;;;3.00;1.30;;;;;;;17.91;61.52;99127.88;108547;1267;58921;-22
2023/08/09 06:38:56;;;;;;;1.70;1.40;;;;;;;18.08;61.68;99128.25;108617;1267;59136;-23
2023/08/09 06:41:24;;;;;;;1.90;1.10;;;;;;;18.31;60.67;99125.58;108460;1267;72186;-23
2023/08/09 06:43:51;;;;;;;2.30;1.20;;;;;;;18.46;60.42;99127.73;108596;1266;74387;-23
2023/08/09 06:46:20;;;;;;;2.30;1.10;;;;;;;18.70;59.13;99129.94;108562;1266;71418;-23
2023/08/09 06:48:47;;;;;;;1.80;1.00;;;;;;;18.85;58.88;99129.27;108580;1266;60084;-23
2023/08/09 06:51:15;;;;;;;2.90;1.00;;;;;;;19.04;57.36;99131.87;108731;1264;60020;-23
2023/08/09 06:53:43;;;;;;;2.00;1.20;;;;;;;19.14;56.08;99133.70;108791;1263;73053;-23
2023/08/09 06:56:10;;;;;;;2.10;0.90;;;;;;;19.27;55.32;99127.08;108743;1263;74476;-23
2023/08/09 06:58:38;;;;;;;1.50;1.10;;;;;;;19.40;56.11;99130.20;108728;1263;72693;-23
2023/08/09 07:01:09;;;;;;;2.10;1.00;;;;;;;19.55;54.53;99132.67;108739;1265;58904;-23
2023/08/09 07:03:37;;;;;;;1.80;1.00;;;;;;;19.59;53.26;99130.45;108808;1263;59047;-24
2023/08/09 07:06:05;;;;;;;2.30;1.20;;;;;;;19.69;52.41;99132.85;108833;1263;73943;-24
2023/08/09 07:08:32;;;;;;;2.40;1.20;;;;;;;19.55;53.41;99133.77;108795;1263;74400;-23
2023/08/09 07:11:00;;;;;;;1.70;1.10;;;;;;;19.67;53.29;99131.45;108750;1263;72648;-23
2023/08/09 07:13:28;;;;;;;1.60;1.00;;;;;;;19.80;52.49;99135.57;108716;1263;58901;-23
2023/08/09 07:15:55;;;;;;;1.20;0.80;;;;;;;19.86;50.04;99132.77;108738;1263;58797;-23
2023/08/09 07:18:25;;;;;;;1.50;1.00;;;;;;;19.90;49.66;99131.08;108664;1263;75970;-24
2023/08/09 07:20:53;;;;;;;1.40;1.00;;;;;;;19.88;50.57;99129.27;108834;1263;74439;-23
2023/08/09 07:23:20;;;;;;;1.00;0.90;;;;;;;20.01;52.01;99131.89;108772;1263;71103;-23
2023/08/09 07:26:08;;;;;;;2.80;1.10;;;;;;;20.14;51.13;99132.96;108737;1263;60098;-23
2023/08/09 07:30:17;;;;;;;2.00;0.90;;;;;;;20.54;51.07;99128.84;102638;1293;601060;-22
2023/08/09 07:40:46;;;;;;;1.40;1.10;;;;;;;21.22;47.81;99132.46;102435;1293;615448;-23
2023/08/09 07:43:13;;;;;;;2.60;2.30;;;;;;;21.29;45.94;99126.70;105087;1268;61155;-23
2023/08/09 07:45:42;;;;;;;2.80;1.70;;;;;;;21.22;46.58;99126.52;105106;1267;61168;-23
2023/08/09 07:48:09;;;;;;;1.30;1.20;;;;;;;21.50;46.49;99123.53;104937;1269;72306;-24
2023/08/09 07:50:36;;;;;;;1.20;0.80;;;;;;;21.72;46.15;99124.13;104873;1267;74267;-24
2023/08/09 07:53:03;;;;;;;1.30;0.70;;;;;;;21.74;43.80;99124.63;102996;1269;2818567;-24
2023/08/09 07:55:31;;;;;;;1.20;0.80;;;;;;;21.78;44.18;99125.05;104921;1270;61135;-23
2023/08/09 07:57:58;;;;;;;1.70;1.00;;;;;;;21.68;44.70;99125.73;105272;1267;61179;-24
2023/08/09 08:00:25;;;;;;;1.50;0.90;;;;;;;21.58;44.41;99125.02;105144;1269;72059;-23
2023/08/09 08:03:01;;;;;;;0.90;0.60;;;;;;;21.69;44.25;99125.73;105057;1268;74472;-23
2023/08/09 08:05:29;;;;;;;1.10;0.80;;;;;;;21.77;43.93;99127.62;105146;1264;72428;-23
2023/08/09 08:07:56;;;;;;;1.10;0.70;;;;;;;21.88;43.18;99132.60;105065;1264;61064;-24
2023/08/09 08:10:23;;;;;;;1.60;1.10;;;;;;;21.87;43.62;99130.92;104918;1266;61065;-24
2023/08/09 08:12:50;;;;;;;2.00;0.80;;;;;;;22.05;43.59;99132.30;105112;1264;73072;-23
2023/08/09 08:15:18;;;;;;;2.00;1.10;;;;;;;22.11;43.68;99130.57;105055;1267;74117;-23
2023/08/09 08:17:46;;;;;;;2.20;1.00;;;;;;;21.94;43.18;99133.98;104984;1264;72565;-23
2023/08/09 08:20:17;;;;;;;1.40;0.90;;;;;;;22.08;43.99;99130.40;104853;1264;61153;-23
2023/08/09 08:22:45;;;;;;;2.50;1.30;;;;;;;22.22;43.07;99128.48;104814;1269;61179;-23
2023/08/09 08:25:13;;;;;;;3.60;1.10;;;;;;;22.33;43.79;99127.66;104791;1264;72843;-24
2023/08/09 08:27:40;;;;;;;1.90;1.00;;;;;;;22.36;42.03;99119.59;104968;1267;74304;-23
2023/08/09 08:30:08;;;;;;;1.00;0.90;;;;;;;22.26;41.52;99122.45;105193;1264;72599;-23
2023/08/09 08:32:36;;;;;;;2.60;1.70;;;;;;;22.09;41.14;99119.95;105057;1269;61366;-23
2023/08/09 08:35:04;;;;;;;1.60;0.90;;;;;;;21.64;41.98;99121.54;105010;1264;61247;-23
2023/08/09 08:37:31;;;;;;;1.10;0.80;;;;;;;21.86;43.29;99121.94;104836;1264;72735;-24
2023/08/09 08:39:58;;;;;;;3.70;1.80;;;;;;;21.89;44.20;99125.63;105020;1264;74293;-24
2023/08/09 08:42:27;;;;;;;2.50;1.30;;;;;;;22.06;44.23;99127.17;105107;1263;72465;-24
2023/08/09 08:44:55;;;;;;;2.20;1.40;;;;;;;22.23;43.49;99123.91;104881;1266;61193;-23
2023/08/09 08:47:24;;;;;;;2.20;1.10;;;;;;;22.36;43.26;99121.07;104963;1270;61196;-23
2023/08/09 08:49:51;;;;;;;4.00;1.10;;;;;;;22.65;43.34;99123.95;104720;1267;73037;-23
2023/08/09 08:52:18;;;;;;;2.30;1.10;;;;;;;22.93;41.61;99122.77;104922;1269;74398;-24
2023/08/09 08:54:45;;;;;;;1.80;0.90;;;;;;;22.82;41.50;99123.93;105138;1263;72600;-23
2023/08/09 08:57:12;;;;;;;2.60;1.00;;;;;;;22.07;42.53;99132.27;105130;1270;61157;-24
2023/08/09 08:59:39;;;;;;;2.00;0.90;;;;;;;21.90;43.08;99133.17;105117;1269;61187;-23
2023/08/09 09:02:07;;;;;;;1.70;1.00;;;;;;;21.67;43.49;99127.84;105253;1260;72844;-23
2023/08/09 09:04:36;;;;;;;1.60;0.80;;;;;;;21.65;44.00;99126.86;105152;1264;74323;-24
2023/08/09 09:07:03;;;;;;;1.80;1.00;;;;;;;21.68;44.44;99131.40;105270;1266;72454;-23
2023/08/09 09:09:32;;;;;;;1.40;0.90;;;;;;;21.78;43.43;99131.20;104980;1261;61135;-23
2023/08/09 09:12:02;;;;;;;1.50;0.90;;;;;;;21.98;42.18;99132.85;105244;1266;61074;-23
2023/08/09 09:14:29;;;;;;;1.10;1.00;;;;;;;22.37;42.19;99130.70;105239;1263;71931;-23
2023/08/09 09:16:57;;;;;;;1.00;0.70;;;;;;;22.64;41.79;99125.38;105198;1264;74135;-23
2023/08/09 09:19:24;;;;;;;1.20;1.10;;;;;;;22.79;41.42;99128.83;105252;1264;72514;-24
2023/08/09 09:21:51;;;;;;;5.10;3.70;;;;;;;22.52;41.23;99129.52;105198;1261;61061;-24
2023/08/09 09:24:20;;;;;;;2.60;1.60;;;;;;;22.78;40.59;99125.98;105250;1264;61192;-23
2023/08/09 09:26:52;;;;;;;2.20;1.00;;;;;;;23.12;41.77;99120.61;104875;1264;73000;-23
2023/08/09 09:29:21;;;;;;;1.40;1.00;;;;;;;23.31;41.01;99124.14;104845;1268;74380;-24
2023/08/09 09:31:48;;;;;;;1.50;0.90;;;;;;;23.48;39.84;99123.05;104981;1262;72563;-24
2023/08/09 09:34:15;;;;;;;1.60;0.90;;;;;;;23.48;39.20;99124.30;104844;1261;61061;-24
2023/08/09 09:36:49;;;;;;;3.10;0.90;;;;;;;23.87;40.34;99123.17;105054;1267;61154;-23
2023/08/09 09:39:16;;;;;;;1.10;1.00;;;;;;;24.21;38.53;99125.27;105102;1264;71820;-23
2023/08/09 09:41:47;;;;;;;1.10;0.70;;;;;;;23.73;38.18;99124.90;105184;1264;74296;-23
2023/08/09 09:44:18;;;;;;;1.10;1.00;;;;;;;23.19;38.40;99128.42;105130;1268;73485;-24
2023/08/09 09:46:45;;;;;;;1.30;1.00;;;;;;;23.63;38.13;99122.69;105313;1257;61071;-23
2023/08/09 09:49:13;;;;;;;1.80;1.00;;;;;;;24.05;37.64;99119.31;105300;1260;61110;-23
2023/08/09 09:51:41;;;;;;;1.20;0.80;;;;;;;24.32;36.84;99116.48;105273;1263;71780;-23
2023/08/09 09:54:09;;;;;;;1.30;0.80;;;;;;;24.04;36.72;99118.70;105340;1257;74372;-23
2023/08/09 09:56:36;;;;;;;2.40;0.90;;;;;;;24.14;35.09;99118.98;105292;1257;72373;-23
2023/08/09 09:59:04;;;;;;;1.30;0.80;;;;;;;24.43;35.85;99119.08;105196;1258;61191;-23
2023/08/09 10:01:32;;;;;;;1.30;0.90;;;;;;;24.92;35.92;99113.23;105259;1256;61061;-23
2023/08/09 10:04:06;;;;;;;1.00;0.70;;;;;;;24.77;36.33;99118.95;105418;1258;73115;-24
2023/08/09 10:06:37;;;;;;;1.00;0.60;;;;;;;24.86;36.25;99113.89;105266;1263;74395;-23
2023/08/09 10:09:05;;;;;;;1.10;0.80;;;;;;;24.76;35.56;99118.83;105314;1257;72444;-24
2023/08/09 10:11:33;;;;;;;1.60;1.00;;;;;;;24.67;35.42;99116.89;105296;1257;61189;-24
2023/08/09 10:14:01;;;;;;;1.40;0.80;;;;;;;24.79;35.07;99114.30;105230;1257;61109;-23
2023/08/09 10:16:29;;;;;;;2.00;0.70;;;;;;;25.00;34.51;99113.01;105274;1257;72958;-24
2023/08/09 10:19:00;;;;;;;0.80;0.70;;;;;;;25.14;34.23;99108.45;105251;1257;74178;-23
2023/08/09 10:21:27;;;;;;;2.60;0.80;;;;;;;25.39;34.80;99102.89;105124;1257;72295;-23
2023/08/09 10:24:12;;;;;;;1.30;0.80;;;;;;;25.40;34.97;99103.83;105195;1257;61164;-24
2023/08/09 10:26:46;;;;;;;0.90;0.70;;;;;;;24.93;36.50;99103.97;105189;1257;60999;-23
2023/08/09 10:29:13;;;;;;;1.70;0.80;;;;;;;25.42;36.30;99105.65;105270;1258;73455;-23
2023/08/09 10:31:53;;;;;;;0.80;0.60;;;;;;;24.98;34.94;99105.55;105161;1264;74289;-23
2023/08/09 10:34:23;;;;;;;0.90;0.70;;;;;;;24.94;35.26;99099.24;105608;1260;72629;-24
2023/08/09 10:36:53;;;;;;;1.60;1.00;;;;;;;25.54;33.82;99095.60;105301;1258;61070;-24
2023/08/09 10:39:21;;;;;;;1.20;0.70;;;;;;;26.09;33.64;99096.02;105313;1263;61129;-24
2023/08/09 10:42:15;;;;;;;0.90;0.70;;;;;;;26.32;33.42;99098.83;105432;1257;72842;-24
2023/08/09 10:44:49;;;;;;;1.80;0.80;;;;;;;26.21;33.03;99098.05;105288;1257;74534;-24
2023/08/09 10:47:20;;;;;;;2.40;0.90;;;;;;;26.67;33.20;99094.04;105374;1258;71525;-24
2023/08/09 10:49:47;;;;;;;1.70;0.90;;;;;;;27.10;32.54;99096.39;105416;1257;61291;-23
2023/08/09 10:52:16;;;;;;;0.90;0.80;;;;;;;26.74;32.82;99092.08;105339;1260;61132;-22
2023/08/09 10:54:50;;;;;;;1.00;0.80;;;;;;;26.35;32.58;99093.51;105228;1257;73062;-24
2023/08/09 10:57:17;;;;;;;1.20;1.10;;;;;;;25.85;34.12;99093.45;105159;1257;74440;-24
2023/08/09 10:59:46;;;;;;;1.30;1.10;;;;;;;25.03;34.51;99094.65;105492;1257;72454;-23
2023/08/09 11:02:15;;;;;;;1.00;0.80;;;;;;;24.03;35.41;99094.66;105304;1260;61154;-23
2023/08/09 11:04:43;;;;;;;2.10;0.80;;;;;;;24.54;34.37;99088.14;105247;1264;61224;-23
2023/08/09 11:07:19;;;;;;;1.60;0.60;;;;;;;24.88;33.71;99084.51;105572;1257;72996;-23
2023/08/09 11:09:46;;;;;;;1.70;0.80;;;;;;;24.80;32.90;99083.83;105413;1257;74328;-23
2023/08/09 11:12:14;;;;;;;1.40;0.90;;;;;;;24.94;33.46;99081.86;105573;1257;72337;-23
2023/08/09 11:14:41;;;;;;;1.00;0.80;;;;;;;25.17;33.63;99084.33;105567;1257;61038;-23
2023/08/09 11:17:12;;;;;;;2.20;0.70;;;;;;;24.93;33.52;99082.54;105311;1258;61149;-23
2023/08/09 11:19:39;;;;;;;1.30;0.80;;;;;;;24.47;34.58;99089.02;105338;1263;72907;-24
2023/08/09 11:22:07;;;;;;;1.30;0.70;;;;;;;24.15;36.28;99086.95;105227;1258;73152;-24
2023/08/09 11:24:34;;;;;;;1.00;0.80;;;;;;;23.92;37.23;99082.33;105622;1257;72636;-24
2023/08/09 11:27:01;;;;;;;0.60;0.60;;;;;;;24.01;37.40;99082.52;105563;1257;61064;-24
2023/08/09 11:29:28;;;;;;;1.00;0.70;;;;;;;23.67;37.74;99084.27;105586;1261;61551;-24
2023/08/09 11:31:58;;;;;;;1.90;0.80;;;;;;;23.29;38.29;99085.64;105531;1257;72996;-23
2023/08/09 11:34:25;;;;;;;1.60;0.90;;;;;;;23.17;38.80;99088.91;105369;1257;73183;-24
2023/08/09 11:36:54;;;;;;;2.10;0.80;;;;;;;23.27;38.31;99088.09;105523;1258;72674;-24
2023/08/09 11:39:22;;;;;;;1.50;0.70;;;;;;;23.67;38.04;99084.27;105259;1263;61198;-24
2023/08/09 11:41:55;;;;;;;0.80;0.80;;;;;;;24.05;36.45;99083.12;105234;1257;61129;-23
2023/08/09 11:44:36;;;;;;;1.30;0.90;;;;;;;24.52;36.90;99084.14;105415;1260;72821;-24
2023/08/09 11:47:04;;;;;;;2.10;0.60;;;;;;;24.88;35.01;99084.09;105239;1258;74399;-24
2023/08/09 11:49:34;;;;;;;1.70;1.40;;;;;;;24.30;35.33;99087.19;105483;1257;71565;-24
2023/08/09 11:52:02;;;;;;;1.30;0.70;;;;;;;24.21;35.98;99086.10;105520;1257;61044;-24
2023/08/09 11:54:30;;;;;;;1.60;0.80;;;;;;;24.38;35.72;99086.40;105397;1257;61097;-24
2023/08/09 11:56:58;;;;;;;0.80;0.70;;;;;;;24.43;35.24;99083.14;105215;1257;73813;-25
2023/08/09 11:59:25;;;;;;;2.50;0.80;;;;;;;24.73;35.16;99074.77;105157;1258;74401;-22
2023/08/09 12:01:55;;;;;;;1.10;0.80;;;;;;;25.23;34.92;99069.70;105092;1257;72689;-22
2023/08/09 12:04:24;;;;;;;1.20;0.70;;;;;;;25.54;35.35;99073.88;105152;1264;61183;-22
2023/08/09 12:06:55;;;;;;;1.00;0.60;;;;;;;25.36;33.15;99076.21;105323;1259;61170;-22
2023/08/09 12:09:42;;;;;;;1.40;0.60;;;;;;;24.83;33.90;99074.59;105095;1257;73747;-23
2023/08/09 12:12:10;;;;;;;1.80;0.80;;;;;;;24.33;35.09;99081.85;105218;1263;74382;-23
2023/08/09 12:14:44;;;;;;;0.90;0.60;;;;;;;23.99;36.30;99079.69;105401;1257;72665;-23
2023/08/09 12:17:24;;;;;;;0.80;0.70;;;;;;;23.90;35.60;99080.45;105147;1263;61210;-23
2023/08/09 12:19:59;;;;;;;2.50;1.30;;;;;;;23.90;36.58;99077.05;105423;1263;61169;-23
2023/08/09 12:22:26;;;;;;;2.10;1.00;;;;;;;23.58;37.41;99086.92;105376;1257;72805;-23
2023/08/09 12:24:56;;;;;;;3.50;1.20;;;;;;;23.57;37.85;99085.16;105283;1257;74365;-23
2023/08/09 12:27:24;;;;;;;1.20;1.10;;;;;;;23.82;37.97;99083.64;105270;1257;71663;-23
2023/08/09 12:29:51;;;;;;;1.00;0.80;;;;;;;24.19;35.92;99085.98;105377;1257;61170;-23
2023/08/09 12:32:19;;;;;;;0.80;0.70;;;;;;;24.69;35.35;99080.83;105502;1260;61183;-23
2023/08/09 12:34:48;;;;;;;2.70;0.80;;;;;;;25.12;33.45;99079.15;105289;1257;72724;-23
2023/08/09 12:37:15;;;;;;;1.40;0.70;;;;;;;25.32;33.19;99079.09;105585;1257;74031;-23
2023/08/09 12:39:42;;;;;;;1.70;0.70;;;;;;;25.36;32.66;99079.56;105555;1257;72656;-23
2023/08/09 12:42:09;;;;;;;1.10;0.70;;;;;;;25.51;33.96;99081.12;105579;1257;61177;-23
2023/08/09 12:44:36;;;;;;;2.50;0.90;;;;;;;25.98;33.70;99078.75;105514;1261;61139;-23
2023/08/09 12:47:04;;;;;;;0.70;0.60;;;;;;;26.53;32.79;99074.14;105583;1257;73978;-23
2023/08/09 12:49:31;;;;;;;0.80;0.70;;;;;;;26.61;31.66;99072.86;105222;1257;73166;-23